createdAt,value
2023-03-17T00:00:42.519Z,1023.23
2023-03-17T00:01:42.553Z,1023.26
2023-03-17T00:02:42.573Z,1023.26
2023-03-17T00:03:42.551Z,1023.24
2023-03-17T00:04:42.526Z,1023.24
2023-03-17T00:05:42.534Z,1023.19
2023-03-17T00:06:42.576Z,1023.13
2023-03-17T00:07:42.525Z,1023.13
2023-03-17T00:08:42.531Z,1023.17
2023-03-17T00:09:42.521Z,1023.26
2023-03-17T00:10:42.537Z,1023.21
2023-03-17T00:11:42.561Z,1023.27
2023-03-17T00:12:42.528Z,1023.37
2023-03-17T00:13:42.531Z,1023.16
2023-03-17T00:14:42.517Z,1023.1
2023-03-17T00:15:42.575Z,1023.17
2023-03-17T00:16:42.544Z,1023.31
2023-03-17T00:17:42.548Z,1023.26
2023-03-17T00:18:42.531Z,1023.19
2023-03-17T00:19:42.534Z,1022.98
2023-03-17T00:20:42.531Z,1023.14
2023-03-17T00:21:42.543Z,1022.98
2023-03-17T00:22:42.536Z,1023.14
2023-03-17T00:23:42.530Z,1023.01
2023-03-17T00:24:42.531Z,1023.03
2023-03-17T00:25:42.540Z,1022.96
2023-03-17T00:26:42.617Z,1023.19
2023-03-17T00:27:42.539Z,1023.05
2023-03-17T00:28:42.570Z,1023.13
2023-03-17T00:29:42.524Z,1023.07
2023-03-17T00:30:42.524Z,1023.12
2023-03-17T00:31:42.631Z,1023.05
2023-03-17T00:32:42.562Z,1022.93
2023-03-17T00:33:42.667Z,1023.06
2023-03-17T00:34:42.536Z,1022.9
2023-03-17T00:35:42.532Z,1022.92
2023-03-17T00:36:42.561Z,1022.94
2023-03-17T00:37:42.526Z,1022.95
2023-03-17T00:38:42.531Z,1022.88
2023-03-17T00:39:42.536Z,1022.85
2023-03-17T00:40:42.544Z,1022.87
2023-03-17T00:41:42.558Z,1022.81
2023-03-17T00:42:42.523Z,1022.74
2023-03-17T00:43:42.518Z,1022.72
2023-03-17T00:44:42.533Z,1022.76
2023-03-17T00:45:42.546Z,1022.68
2023-03-17T00:46:42.603Z,1022.75
2023-03-17T00:47:42.532Z,1022.77
2023-03-17T00:48:42.546Z,1022.68
2023-03-17T00:49:42.530Z,1022.81
2023-03-17T00:50:42.566Z,1022.73
2023-03-17T00:51:42.532Z,1022.7
2023-03-17T00:52:42.536Z,1022.67
2023-03-17T00:53:42.532Z,1022.61
2023-03-17T00:54:42.516Z,1022.69
2023-03-17T00:55:42.529Z,1022.6
2023-03-17T00:56:42.578Z,1022.68
2023-03-17T00:57:42.524Z,1022.56
2023-03-17T00:58:42.531Z,1022.63
2023-03-17T00:59:42.539Z,1022.55
2023-03-17T01:00:42.546Z,1022.53
2023-03-17T01:01:42.581Z,1022.44
2023-03-17T01:02:42.541Z,1022.51
2023-03-17T01:03:42.526Z,1022.53
2023-03-17T01:04:45.610Z,1022.4
2023-03-17T01:05:42.531Z,1022.66
2023-03-17T01:06:42.543Z,1022.44
2023-03-17T01:07:42.530Z,1022.44
2023-03-17T01:08:42.536Z,1022.28
2023-03-17T01:09:42.518Z,1022.24
2023-03-17T01:10:42.529Z,1022.27
2023-03-17T01:11:42.552Z,1022.31
2023-03-17T01:12:42.524Z,1022.41
2023-03-17T01:13:42.526Z,1022.11
2023-03-17T01:14:42.530Z,1022.15
2023-03-17T01:15:42.525Z,1022.08
2023-03-17T01:16:42.606Z,1022.17
2023-03-17T01:17:42.624Z,1022.04
2023-03-17T01:18:42.567Z,1021.97
2023-03-17T01:19:42.539Z,1021.9
2023-03-17T01:20:42.532Z,1021.77
2023-03-17T01:21:42.582Z,1022
2023-03-17T01:22:42.521Z,1022.1
2023-03-17T01:23:42.525Z,1021.91
2023-03-17T01:24:42.530Z,1022.11
2023-03-17T01:25:42.518Z,1022.2
2023-03-17T01:26:42.524Z,1022.01
2023-03-17T01:27:42.546Z,1022.38
2023-03-17T01:28:42.529Z,1021.99
2023-03-17T01:29:42.523Z,1021.92
2023-03-17T01:30:42.534Z,1021.88
2023-03-17T01:31:42.632Z,1021.9
2023-03-17T01:32:42.580Z,1021.95
2023-03-17T01:33:42.526Z,1021.96
2023-03-17T01:34:42.521Z,1021.99
2023-03-17T01:35:42.546Z,1021.97
2023-03-17T01:36:42.548Z,1022.17
2023-03-17T01:37:42.529Z,1021.91
2023-03-17T01:38:42.546Z,1021.95
2023-03-17T01:39:42.536Z,1021.96
2023-03-17T01:40:42.550Z,1022.11
2023-03-17T01:41:42.538Z,1022.09
2023-03-17T01:42:42.523Z,1022.05
2023-03-17T01:43:42.562Z,1022.17
2023-03-17T01:44:42.532Z,1022.1
2023-03-17T01:45:42.537Z,1022.1
2023-03-17T01:46:42.546Z,1022.1
2023-03-17T01:47:42.541Z,1022.23
2023-03-17T01:48:42.532Z,1022.12
2023-03-17T01:49:42.521Z,1022.2
2023-03-17T01:50:42.557Z,1022.57
2023-03-17T01:51:42.529Z,1022.1
2023-03-17T01:52:42.534Z,1022.22
2023-03-17T01:53:42.528Z,1022.2
2023-03-17T01:54:42.526Z,1022.07
2023-03-17T01:55:42.527Z,1022.24
2023-03-17T01:56:42.536Z,1022.14
2023-03-17T01:57:42.545Z,1022.11
2023-03-17T01:58:42.530Z,1022.03
2023-03-17T01:59:42.532Z,1022.14
2023-03-17T02:00:42.512Z,1022.05
2023-03-17T02:01:42.526Z,1022.04
2023-03-17T02:02:42.547Z,1022.04
2023-03-17T02:03:42.531Z,1022.09
2023-03-17T02:04:42.535Z,1022
2023-03-17T02:05:42.517Z,1021.94
2023-03-17T02:06:55.274Z,1021.9
2023-03-17T02:07:42.521Z,1021.9
2023-03-17T02:08:42.515Z,1021.91
2023-03-17T02:09:42.525Z,1021.99
2023-03-17T02:10:42.526Z,1022.02
2023-03-17T02:11:42.529Z,1021.96
2023-03-17T02:12:42.520Z,1021.96
2023-03-17T02:13:42.545Z,1021.99
2023-03-17T02:14:42.535Z,1021.99
2023-03-17T02:15:42.554Z,1022.02
2023-03-17T02:16:42.624Z,1022.1
2023-03-17T02:17:42.559Z,1021.95
2023-03-17T02:18:42.522Z,1022.03
2023-03-17T02:19:42.538Z,1022.08
2023-03-17T02:20:42.527Z,1021.84
2023-03-17T02:21:42.552Z,1021.98
2023-03-17T02:22:42.521Z,1021.94
2023-03-17T02:23:42.520Z,1021.97
2023-03-17T02:24:42.526Z,1022.11
2023-03-17T02:25:42.527Z,1021.98
2023-03-17T02:26:42.534Z,1021.97
2023-03-17T02:27:42.524Z,1022.31
2023-03-17T02:28:42.524Z,1022.04
2023-03-17T02:29:42.530Z,1022.09
2023-03-17T02:30:42.559Z,1022.15
2023-03-17T02:31:42.525Z,1022.09
2023-03-17T02:32:42.603Z,1022.06
2023-03-17T02:33:42.543Z,1022.03
2023-03-17T02:34:42.529Z,1022
2023-03-17T02:35:42.565Z,1022.04
2023-03-17T02:36:42.634Z,1022.11
2023-03-17T02:37:42.520Z,1022.05
2023-03-17T02:38:42.535Z,1022.06
2023-03-17T02:39:42.546Z,1022.37
2023-03-17T02:40:42.531Z,1022.23
2023-03-17T02:41:42.542Z,1022.19
2023-03-17T02:42:42.564Z,1022.22
2023-03-17T02:43:42.522Z,1022.12
2023-03-17T02:44:42.544Z,1022.28
2023-03-17T02:45:42.574Z,1022.14
2023-03-17T02:46:42.564Z,1022.09
2023-03-17T02:47:42.557Z,1022.23
2023-03-17T02:48:42.523Z,1022.1
2023-03-17T02:49:42.526Z,1022.08
2023-03-17T02:50:42.527Z,1022.34
2023-03-17T02:51:42.536Z,1022.06
2023-03-17T02:52:42.524Z,1022.19
2023-03-17T02:53:42.573Z,1022
2023-03-17T02:54:42.534Z,1022.06
2023-03-17T02:55:42.533Z,1021.9
2023-03-17T02:56:42.545Z,1022.1
2023-03-17T02:57:42.520Z,1021.84
2023-03-17T02:58:42.567Z,1021.89
2023-03-17T02:59:42.537Z,1021.77
2023-03-17T03:00:42.538Z,1021.84
2023-03-17T03:01:42.589Z,1021.77
2023-03-17T03:02:42.617Z,1021.87
2023-03-17T03:03:42.526Z,1021.85
2023-03-17T03:04:42.534Z,1021.89
2023-03-17T03:05:42.526Z,1021.97
2023-03-17T03:06:42.593Z,1022.13
2023-03-17T03:07:42.540Z,1022.13
2023-03-17T03:08:42.523Z,1022
2023-03-17T03:09:42.549Z,1022.02
2023-03-17T03:10:42.541Z,1021.96
2023-03-17T03:11:42.530Z,1021.94
2023-03-17T03:12:42.536Z,1021.9
2023-03-17T03:13:42.529Z,1021.84
2023-03-17T03:14:42.558Z,1021.84
2023-03-17T03:15:42.568Z,1021.83
2023-03-17T03:16:42.558Z,1021.73
2023-03-17T03:17:42.536Z,1021.83
2023-03-17T03:18:42.535Z,1021.67
2023-03-17T03:19:42.543Z,1021.72
2023-03-17T03:20:42.531Z,1021.66
2023-03-17T03:21:42.548Z,1021.71
2023-03-17T03:22:42.530Z,1021.65
2023-03-17T03:23:42.525Z,1021.67
2023-03-17T03:24:42.545Z,1021.74
2023-03-17T03:25:42.527Z,1021.74
2023-03-17T03:26:42.544Z,1021.77
2023-03-17T03:27:42.514Z,1021.74
2023-03-17T03:28:42.539Z,1021.79
2023-03-17T03:29:42.526Z,1021.65
2023-03-17T03:30:42.685Z,1021.77
2023-03-17T03:31:42.529Z,1021.76
2023-03-17T03:32:42.579Z,1021.82
2023-03-17T03:33:42.554Z,1021.86
2023-03-17T03:34:42.528Z,1021.89
2023-03-17T03:35:42.542Z,1021.85
2023-03-17T03:36:42.558Z,1021.8
2023-03-17T03:37:42.530Z,1021.77
2023-03-17T03:38:42.534Z,1021.77
2023-03-17T03:39:42.518Z,1021.71
2023-03-17T03:40:42.534Z,1021.71
2023-03-17T03:41:42.571Z,1021.72
2023-03-17T03:42:42.523Z,1021.65
2023-03-17T03:43:42.527Z,1021.68
2023-03-17T03:44:42.535Z,1021.66
2023-03-17T03:45:42.520Z,1021.58
2023-03-17T03:46:42.624Z,1021.76
2023-03-17T03:47:42.550Z,1021.63
2023-03-17T03:48:42.545Z,1021.82
2023-03-17T03:49:42.526Z,1021.68
2023-03-17T03:50:42.537Z,1021.65
2023-03-17T03:51:42.531Z,1021.65
2023-03-17T03:52:42.527Z,1021.75
2023-03-17T03:53:42.554Z,1021.63
2023-03-17T03:54:42.519Z,1021.58
2023-03-17T03:55:42.515Z,1021.53
2023-03-17T03:56:42.563Z,1021.44
2023-03-17T03:57:42.550Z,1021.44
2023-03-17T03:58:42.523Z,1021.28
2023-03-17T03:59:42.522Z,1021.39
2023-03-17T04:00:42.523Z,1021.32
2023-03-17T04:01:42.544Z,1021.4
2023-03-17T04:02:42.617Z,1021.38
2023-03-17T04:03:42.530Z,1021.31
2023-03-17T04:04:42.551Z,1021.37
2023-03-17T04:05:42.526Z,1021.35
2023-03-17T04:06:42.544Z,1021.4
2023-03-17T04:07:42.526Z,1021.4
2023-03-17T04:08:42.519Z,1021.32
2023-03-17T04:09:42.536Z,1021.39
2023-03-17T04:10:42.537Z,1021.4
2023-03-17T04:11:42.533Z,1021.41
2023-03-17T04:12:42.536Z,1021.53
2023-03-17T04:13:42.527Z,1021.47
2023-03-17T04:14:42.527Z,1021.44
2023-03-17T04:15:42.548Z,1021.38
2023-03-17T04:16:43.634Z,1021.45
2023-03-17T04:17:42.525Z,1021.35
2023-03-17T04:18:42.549Z,1021.48
2023-03-17T04:19:42.523Z,1021.45
2023-03-17T04:20:42.519Z,1021.45
2023-03-17T04:21:42.527Z,1021.4
2023-03-17T04:22:42.524Z,1021.4
2023-03-17T04:23:42.535Z,1021.39
2023-03-17T04:24:42.524Z,1021.49
2023-03-17T04:25:42.527Z,1021.42
2023-03-17T04:26:42.548Z,1021.51
2023-03-17T04:27:42.545Z,1021.48
2023-03-17T04:28:42.527Z,1021.47
2023-03-17T04:29:42.530Z,1021.4
2023-03-17T04:30:42.534Z,1021.45
2023-03-17T04:31:42.623Z,1021.38
2023-03-17T04:32:42.599Z,1021.49
2023-03-17T04:33:42.527Z,1021.37
2023-03-17T04:34:42.527Z,1021.4
2023-03-17T04:35:42.554Z,1021.37
2023-03-17T04:36:42.532Z,1021.43
2023-03-17T04:37:42.525Z,1021.47
2023-03-17T04:38:42.524Z,1021.4
2023-03-17T04:39:42.518Z,1021.42
2023-03-17T04:40:42.507Z,1021.37
2023-03-17T04:41:42.539Z,1021.31
2023-03-17T04:42:42.527Z,1021.34
2023-03-17T04:43:42.524Z,1021.36
2023-03-17T04:44:42.520Z,1021.27
2023-03-17T04:45:42.549Z,1021.28
2023-03-17T04:46:42.536Z,1021.32
2023-03-17T04:47:42.528Z,1021.35
2023-03-17T04:48:42.527Z,1021.33
2023-03-17T04:49:42.525Z,1021.27
2023-03-17T04:50:42.519Z,1021.3
2023-03-17T04:51:42.521Z,1021.32
2023-03-17T04:52:42.546Z,1021.21
2023-03-17T04:53:42.531Z,1021.19
2023-03-17T04:54:42.529Z,1021.16
2023-03-17T04:55:42.526Z,1021.15
2023-03-17T04:56:42.541Z,1021.24
2023-03-17T04:57:42.525Z,1021.12
2023-03-17T04:58:42.525Z,1021.13
2023-03-17T04:59:42.514Z,1021.21
2023-03-17T05:00:42.561Z,1021.25
2023-03-17T05:01:42.534Z,1021.17
2023-03-17T05:02:42.588Z,1021.25
2023-03-17T05:03:42.521Z,1021.12
2023-03-17T05:04:42.510Z,1021.14
2023-03-17T05:05:42.531Z,1021.2
2023-03-17T05:06:42.538Z,1021.21
2023-03-17T05:07:42.528Z,1021.21
2023-03-17T05:08:42.526Z,1021.15
2023-03-17T05:09:42.549Z,1021.22
2023-03-17T05:10:42.528Z,1021.13
2023-03-17T05:11:42.542Z,1021.21
2023-03-17T05:12:42.533Z,1021.21
2023-03-17T05:13:42.529Z,1021.26
2023-03-17T05:14:42.546Z,1021.22
2023-03-17T05:15:42.542Z,1021.36
2023-03-17T05:16:42.542Z,1021.33
2023-03-17T05:17:42.537Z,1021.32
2023-03-17T05:18:42.533Z,1021.43
2023-03-17T05:19:42.533Z,1021.36
2023-03-17T05:20:42.530Z,1021.33
2023-03-17T05:21:42.535Z,1021.31
2023-03-17T05:22:42.525Z,1021.29
2023-03-17T05:23:42.543Z,1021.27
2023-03-17T05:24:42.539Z,1021.3
2023-03-17T05:25:42.535Z,1021.29
2023-03-17T05:26:42.529Z,1021.24
2023-03-17T05:27:42.524Z,1021.16
2023-03-17T05:28:42.522Z,1021.25
2023-03-17T05:29:42.521Z,1021.3
2023-03-17T05:30:42.538Z,1021.31
2023-03-17T05:31:42.525Z,1021.28
2023-03-17T05:32:42.568Z,1021.26
2023-03-17T05:33:42.537Z,1021.28
2023-03-17T05:34:42.520Z,1021.26
2023-03-17T05:35:42.555Z,1021.18
2023-03-17T05:36:42.550Z,1021.18
2023-03-17T05:37:42.521Z,1021.25
2023-03-17T05:38:42.531Z,1021.24
2023-03-17T05:39:42.520Z,1021.16
2023-03-17T05:40:42.528Z,1021.14
2023-03-17T05:41:42.535Z,1021.19
2023-03-17T05:42:42.524Z,1021.17
2023-03-17T05:43:42.512Z,1021.09
2023-03-17T05:44:42.520Z,1021.04
2023-03-17T05:45:42.576Z,1021.04
2023-03-17T05:46:42.550Z,1021.07
2023-03-17T05:47:42.536Z,1021.08
2023-03-17T05:48:42.522Z,1021.05
2023-03-17T05:49:42.542Z,1020.94
2023-03-17T05:50:42.527Z,1021.02
2023-03-17T05:51:42.527Z,1021.01
2023-03-17T05:52:42.525Z,1020.93
2023-03-17T05:53:42.536Z,1020.96
2023-03-17T05:54:42.531Z,1020.88
2023-03-17T05:55:42.543Z,1020.86
2023-03-17T05:56:42.542Z,1020.59
2023-03-17T05:57:42.542Z,1020.95
2023-03-17T05:58:42.523Z,1020.94
2023-03-17T05:59:42.534Z,1020.91
2023-03-17T06:00:42.513Z,1021.01
2023-03-17T06:01:42.542Z,1021.02
2023-03-17T06:02:42.630Z,1020.9
2023-03-17T06:03:42.564Z,1021.09
2023-03-17T06:04:42.532Z,1020.91
2023-03-17T06:05:42.533Z,1020.97
2023-03-17T06:06:42.570Z,1020.9
2023-03-17T06:07:51.721Z,1020.9
2023-03-17T06:08:42.523Z,1021.03
2023-03-17T06:09:42.527Z,1020.95
2023-03-17T06:10:42.525Z,1021.12
2023-03-17T06:11:42.541Z,1021.05
2023-03-17T06:12:42.530Z,1021.07
2023-03-17T06:13:42.552Z,1020.92
2023-03-17T06:14:42.528Z,1020.93
2023-03-17T06:15:42.678Z,1021.03
2023-03-17T06:16:42.550Z,1021.02
2023-03-17T06:17:42.544Z,1020.96
2023-03-17T06:18:42.537Z,1020.9
2023-03-17T06:19:42.522Z,1021.02
2023-03-17T06:20:42.533Z,1021.01
2023-03-17T06:21:42.537Z,1021.08
2023-03-17T06:22:55.215Z,1021.09
2023-03-17T06:23:42.522Z,1021.11
2023-03-17T06:24:42.523Z,1021.07
2023-03-17T06:25:42.528Z,1021.1
2023-03-17T06:26:42.559Z,1021.15
2023-03-17T06:27:42.518Z,1021.08
2023-03-17T06:28:42.531Z,1021.03
2023-03-17T06:29:42.527Z,1021.04
2023-03-17T06:30:42.542Z,1021.01
2023-03-17T06:31:42.537Z,1020.96
2023-03-17T06:32:42.574Z,1020.93
2023-03-17T06:33:42.554Z,1020.87
2023-03-17T06:34:42.535Z,1020.9
2023-03-17T06:35:42.620Z,1020.94
2023-03-17T06:36:42.539Z,1020.86
2023-03-17T06:37:42.526Z,1020.91
2023-03-17T06:38:42.522Z,1020.81
2023-03-17T06:39:42.520Z,1020.91
2023-03-17T06:40:42.538Z,1020.89
2023-03-17T06:41:42.528Z,1020.91
2023-03-17T06:42:42.540Z,1020.96
2023-03-17T06:43:42.555Z,1020.97
2023-03-17T06:44:42.527Z,1020.85
2023-03-17T06:45:42.537Z,1021.03
2023-03-17T06:46:42.611Z,1020.98
2023-03-17T06:47:42.542Z,1020.99
2023-03-17T06:48:42.525Z,1021.08
2023-03-17T06:49:42.515Z,1021.04
2023-03-17T06:50:42.536Z,1021.02
2023-03-17T06:51:42.541Z,1020.96
2023-03-17T06:52:42.948Z,1021.11
2023-03-17T06:53:42.530Z,1021.07
2023-03-17T06:54:42.514Z,1020.96
2023-03-17T06:55:42.528Z,1020.98
2023-03-17T06:56:42.546Z,1020.93
2023-03-17T06:57:42.530Z,1020.97
2023-03-17T06:58:42.532Z,1021.11
2023-03-17T06:59:42.533Z,1020.97
2023-03-17T07:00:42.528Z,1021.13
2023-03-17T07:01:42.599Z,1021.06
2023-03-17T07:02:42.527Z,1020.99
2023-03-17T07:03:42.518Z,1020.88
2023-03-17T07:04:42.592Z,1021.02
2023-03-17T07:05:42.522Z,1021.08
2023-03-17T07:06:42.564Z,1020.93
2023-03-17T07:07:42.554Z,1020.93
2023-03-17T07:08:42.519Z,1020.99
2023-03-17T07:09:42.535Z,1021.05
2023-03-17T07:10:42.529Z,1020.97
2023-03-17T07:11:42.551Z,1020.91
2023-03-17T07:12:42.529Z,1020.96
2023-03-17T07:13:42.529Z,1020.74
2023-03-17T07:14:42.520Z,1020.79
2023-03-17T07:15:42.529Z,1020.93
2023-03-17T07:16:42.597Z,1020.9
2023-03-17T07:17:42.585Z,1020.85
2023-03-17T07:18:42.526Z,1020.91
2023-03-17T07:19:42.528Z,1020.88
2023-03-17T07:20:42.533Z,1020.85
2023-03-17T07:21:42.537Z,1020.92
2023-03-17T07:22:42.556Z,1020.97
2023-03-17T07:23:42.522Z,1020.94
2023-03-17T07:24:42.526Z,1020.85
2023-03-17T07:25:42.530Z,1021.01
2023-03-17T07:26:42.525Z,1020.94
2023-03-17T07:27:42.533Z,1020.98
2023-03-17T07:28:42.532Z,1020.96
2023-03-17T07:29:42.527Z,1020.91
2023-03-17T07:30:42.523Z,1021.03
2023-03-17T07:31:42.602Z,1021.04
2023-03-17T07:32:42.545Z,1020.96
2023-03-17T07:33:42.548Z,1021.04
2023-03-17T07:34:42.563Z,1021.01
2023-03-17T07:35:42.568Z,1021.18
2023-03-17T07:36:42.550Z,1021.17
2023-03-17T07:37:42.528Z,1021.18
2023-03-17T07:38:42.522Z,1021.19
2023-03-17T07:39:42.524Z,1021.11
2023-03-17T07:40:42.525Z,1021.17
2023-03-17T07:41:42.545Z,1021.24
2023-03-17T07:42:42.546Z,1021.28
2023-03-17T07:43:42.523Z,1021.25
2023-03-17T07:44:42.581Z,1021.29
2023-03-17T07:45:42.604Z,1021.36
2023-03-17T07:46:42.560Z,1021.35
2023-03-17T07:47:42.538Z,1021.34
2023-03-17T07:48:42.546Z,1021.37
2023-03-17T07:49:42.669Z,1021.34
2023-03-17T07:50:42.559Z,1021.25
2023-03-17T07:51:42.523Z,1021.31
2023-03-17T07:52:42.527Z,1021.12
2023-03-17T07:53:42.542Z,1021.02
2023-03-17T07:54:43.233Z,1021.01
2023-03-17T07:55:42.516Z,1020.85
2023-03-17T07:56:42.627Z,1020.89
2023-03-17T07:57:42.618Z,1020.88
2023-03-17T07:58:42.527Z,1020.92
2023-03-17T07:59:42.525Z,1020.93
2023-03-17T08:00:42.526Z,1021.04
2023-03-17T08:01:42.611Z,1021.1
2023-03-17T08:02:42.605Z,1021.12
2023-03-17T08:03:42.694Z,1021.1
2023-03-17T08:04:42.526Z,1021.12
2023-03-17T08:05:42.538Z,1021.2
2023-03-17T08:06:42.537Z,1021.19
2023-03-17T08:07:42.520Z,1021.19
2023-03-17T08:08:42.516Z,1021.15
2023-03-17T08:09:42.535Z,1021.1
2023-03-17T08:10:42.530Z,1021.1
2023-03-17T08:11:42.537Z,1020.92
2023-03-17T08:12:42.530Z,1020.97
2023-03-17T08:13:42.597Z,1020.91
2023-03-17T08:14:42.533Z,1021.05
2023-03-17T08:15:42.522Z,1020.94
2023-03-17T08:16:42.597Z,1020.99
2023-03-17T08:17:42.587Z,1020.93
2023-03-17T08:18:42.574Z,1021.05
2023-03-17T08:19:42.526Z,1020.99
2023-03-17T08:20:42.579Z,1020.82
2023-03-17T08:21:42.544Z,1020.73
2023-03-17T08:22:42.562Z,1020.78
2023-03-17T08:23:42.544Z,1020.83
2023-03-17T08:24:42.520Z,1020.86
2023-03-17T08:25:42.570Z,1020.83
2023-03-17T08:26:42.532Z,1020.79
2023-03-17T08:27:42.589Z,1020.68
2023-03-17T08:28:42.527Z,1020.91
2023-03-17T08:29:42.525Z,1020.84
2023-03-17T08:30:42.573Z,1020.82
2023-03-17T08:31:44.098Z,1020.86
2023-03-17T08:32:42.618Z,1020.67
2023-03-17T08:33:42.692Z,1020.64
2023-03-17T08:34:42.535Z,1020.6
2023-03-17T08:35:42.557Z,1020.49
2023-03-17T08:36:42.540Z,1020.7
2023-03-17T08:37:42.547Z,1020.46
2023-03-17T08:38:42.527Z,1020.42
2023-03-17T08:39:42.534Z,1020.54
2023-03-17T08:40:42.533Z,1020.52
2023-03-17T08:41:42.536Z,1020.47
2023-03-17T08:42:42.516Z,1020.45
2023-03-17T08:43:42.533Z,1020.49
2023-03-17T08:44:44.071Z,1020.43
2023-03-17T08:45:42.557Z,1020.46
2023-03-17T08:46:42.556Z,1020.45
2023-03-17T08:47:42.549Z,1020.43
2023-03-17T08:48:42.526Z,1020.38
2023-03-17T08:49:42.533Z,1020.41
2023-03-17T08:50:42.530Z,1020.44
2023-03-17T08:51:42.535Z,1020.41
2023-03-17T08:52:42.522Z,1020.65
2023-03-17T08:53:42.527Z,1020.46
2023-03-17T08:54:42.546Z,1020.43
2023-03-17T08:55:42.540Z,1020.45
2023-03-17T08:56:42.551Z,1020.46
2023-03-17T08:57:42.531Z,1020.47
2023-03-17T08:58:42.589Z,1020.56
2023-03-17T08:59:42.529Z,1020.55
2023-03-17T09:00:42.525Z,1020.63
2023-03-17T09:01:42.553Z,1020.59
2023-03-17T09:02:42.592Z,1020.41
2023-03-17T09:03:42.529Z,1020.42
2023-03-17T09:04:42.533Z,1020.38
2023-03-17T09:05:42.531Z,1020.38
2023-03-17T09:06:55.391Z,1020.38
2023-03-17T09:07:42.625Z,1020.38
2023-03-17T09:08:42.527Z,1020.41
2023-03-17T09:09:42.524Z,1020.29
2023-03-17T09:10:44.185Z,1020.19
2023-03-17T09:11:42.533Z,1020.23
2023-03-17T09:12:42.537Z,1020.17
2023-03-17T09:13:42.524Z,1020.29
2023-03-17T09:14:44.088Z,1020.29
2023-03-17T09:15:42.545Z,1020.16
2023-03-17T09:16:42.558Z,1020.16
2023-03-17T09:17:42.547Z,1020.15
2023-03-17T09:18:42.564Z,1020.13
2023-03-17T09:19:42.528Z,1020.09
2023-03-17T09:20:42.526Z,1020.01
2023-03-17T09:21:42.524Z,1019.9
2023-03-17T09:22:42.537Z,1020.01
2023-03-17T09:23:42.558Z,1019.95
2023-03-17T09:24:42.532Z,1020.01
2023-03-17T09:25:42.526Z,1019.99
2023-03-17T09:26:42.545Z,1019.77
2023-03-17T09:27:42.528Z,1019.88
2023-03-17T09:28:42.529Z,1019.88
2023-03-17T09:29:42.521Z,1019.88
2023-03-17T09:30:42.541Z,1019.84
2023-03-17T09:31:42.653Z,1019.77
2023-03-17T09:32:42.578Z,1019.74
2023-03-17T09:33:42.544Z,1019.72
2023-03-17T09:34:42.523Z,1019.8
2023-03-17T09:35:42.601Z,1019.84
2023-03-17T09:36:42.544Z,1019.85
2023-03-17T09:37:42.529Z,1019.74
2023-03-17T09:38:42.524Z,1019.77
2023-03-17T09:39:42.551Z,1019.75
2023-03-17T09:40:42.528Z,1019.77
2023-03-17T09:41:42.522Z,1019.73
2023-03-17T09:42:42.524Z,1019.77
2023-03-17T09:43:42.533Z,1019.69
2023-03-17T09:44:42.526Z,1019.76
2023-03-17T09:45:43.737Z,1019.67
2023-03-17T09:46:42.606Z,1019.69
2023-03-17T09:47:43.018Z,1019.68
2023-03-17T09:48:42.517Z,1019.7
2023-03-17T09:49:42.542Z,1019.71
2023-03-17T09:50:42.531Z,1019.68
2023-03-17T09:51:42.553Z,1019.67
2023-03-17T09:52:42.527Z,1019.66
2023-03-17T09:53:42.533Z,1019.76
2023-03-17T09:54:42.536Z,1019.81
2023-03-17T09:55:42.518Z,1019.89
2023-03-17T09:56:42.534Z,1019.7
2023-03-17T09:57:42.524Z,1019.78
2023-03-17T09:58:42.519Z,1019.73
2023-03-17T09:59:42.530Z,1019.67
2023-03-17T10:00:42.515Z,1019.72
2023-03-17T10:01:42.627Z,1019.78
2023-03-17T10:02:42.533Z,1019.66
2023-03-17T10:03:42.530Z,1019.58
2023-03-17T10:04:42.531Z,1019.46
2023-03-17T10:05:42.616Z,1019.8
2023-03-17T10:06:42.549Z,1019.74
2023-03-17T10:07:42.519Z,1019.74
2023-03-17T10:08:42.520Z,1019.67
2023-03-17T10:09:42.527Z,1019.67
2023-03-17T10:10:42.520Z,1019.75
2023-03-17T10:11:42.536Z,1019.78
2023-03-17T10:12:42.532Z,1019.66
2023-03-17T10:13:42.529Z,1019.7
2023-03-17T10:14:42.531Z,1019.73
2023-03-17T10:15:42.523Z,1019.75
2023-03-17T10:16:42.528Z,1019.77
2023-03-17T10:17:42.566Z,1019.75
2023-03-17T10:18:42.524Z,1019.68
2023-03-17T10:19:42.519Z,1019.7
2023-03-17T10:20:42.527Z,1019.63
2023-03-17T10:21:42.523Z,1019.62
2023-03-17T10:22:42.529Z,1019.62
2023-03-17T10:23:42.523Z,1019.64
2023-03-17T10:24:42.526Z,1019.62
2023-03-17T10:25:42.552Z,1019.57
2023-03-17T10:26:42.544Z,1019.67
2023-03-17T10:27:42.514Z,1019.69
2023-03-17T10:28:42.524Z,1019.73
2023-03-17T10:29:42.524Z,1019.69
2023-03-17T10:30:42.524Z,1019.66
2023-03-17T10:31:42.566Z,1019.59
2023-03-17T10:32:42.547Z,1019.64
2023-03-17T10:33:42.525Z,1019.64
2023-03-17T10:34:42.515Z,1019.66
2023-03-17T10:35:42.599Z,1019.56
2023-03-17T10:36:42.559Z,1019.55
2023-03-17T10:37:43.808Z,1019.59
2023-03-17T10:38:42.525Z,1019.63
2023-03-17T10:39:42.536Z,1019.67
2023-03-17T10:40:42.526Z,1019.72
2023-03-17T10:41:42.554Z,1019.64
2023-03-17T10:42:42.512Z,1019.75
2023-03-17T10:43:42.528Z,1019.73
2023-03-17T10:44:42.523Z,1019.69
2023-03-17T10:45:44.208Z,1019.65
2023-03-17T10:46:42.561Z,1019.57
2023-03-17T10:47:42.550Z,1019.57
2023-03-17T10:48:42.525Z,1019.54
2023-03-17T10:49:42.523Z,1019.65
2023-03-17T10:50:42.529Z,1019.63
2023-03-17T10:51:42.531Z,1019.57
2023-03-17T10:52:42.548Z,1019.54
2023-03-17T10:53:42.533Z,1019.57
2023-03-17T10:54:42.572Z,1019.51
2023-03-17T10:55:42.625Z,1019.56
2023-03-17T10:56:42.571Z,1019.59
2023-03-17T10:57:42.527Z,1019.44
2023-03-17T10:58:42.523Z,1019.5
2023-03-17T10:59:44.319Z,1019.5
2023-03-17T11:00:42.574Z,1019.56
2023-03-17T11:01:42.536Z,1019.57
2023-03-17T11:02:42.550Z,1019.55
2023-03-17T11:03:42.578Z,1019.67
2023-03-17T11:04:42.569Z,1019.66
2023-03-17T11:05:42.536Z,1019.82
2023-03-17T11:06:42.550Z,1019.54
2023-03-17T11:07:42.542Z,1019.54
2023-03-17T11:08:42.537Z,1019.79
2023-03-17T11:09:42.530Z,1019.46
2023-03-17T11:10:42.525Z,1019.78
2023-03-17T11:11:42.531Z,1019.63
2023-03-17T11:12:42.531Z,1019.57
2023-03-17T11:13:42.529Z,1019.55
2023-03-17T11:14:42.531Z,1019.49
2023-03-17T11:15:42.531Z,1019.72
2023-03-17T11:16:42.635Z,1019.52
2023-03-17T11:17:42.529Z,1019.64
2023-03-17T11:18:42.545Z,1019.4
2023-03-17T11:19:42.534Z,1019.52
2023-03-17T11:20:42.537Z,1019.5
2023-03-17T11:21:42.528Z,1019.48
2023-03-17T11:22:42.526Z,1019.34
2023-03-17T11:23:42.524Z,1019.4
2023-03-17T11:24:42.525Z,1019.3
2023-03-17T11:25:42.541Z,1019.48
2023-03-17T11:26:42.549Z,1019.3
2023-03-17T11:27:42.531Z,1019.28
2023-03-17T11:28:42.539Z,1019.21
2023-03-17T11:29:42.552Z,1019.2
2023-03-17T11:30:42.534Z,1019.21
2023-03-17T11:31:42.596Z,1019.35
2023-03-17T11:32:42.574Z,1019.13
2023-03-17T11:33:42.542Z,1019.41
2023-03-17T11:34:42.528Z,1019.18
2023-03-17T11:35:42.561Z,1019.13
2023-03-17T11:36:42.542Z,1019.15
2023-03-17T11:37:42.522Z,1019.1
2023-03-17T11:38:42.540Z,1019.17
2023-03-17T11:39:42.533Z,1019.21
2023-03-17T11:40:42.528Z,1019.19
2023-03-17T11:41:42.539Z,1019.11
2023-03-17T11:42:42.522Z,1019.1
2023-03-17T11:43:42.537Z,1019.13
2023-03-17T11:44:42.540Z,1019.08
2023-03-17T11:45:42.606Z,1019.09
2023-03-17T11:46:42.554Z,1019.08
2023-03-17T11:47:42.555Z,1019.01
2023-03-17T11:48:42.528Z,1019.01
2023-03-17T11:49:42.535Z,1018.97
2023-03-17T11:50:42.516Z,1019
2023-03-17T11:51:42.638Z,1019.02
2023-03-17T11:52:42.523Z,1019.04
2023-03-17T11:53:42.525Z,1018.96
2023-03-17T11:54:42.544Z,1018.95
2023-03-17T11:55:42.528Z,1018.95
2023-03-17T11:56:42.534Z,1019.06
2023-03-17T11:57:42.525Z,1019.04
2023-03-17T11:58:42.529Z,1019.07
2023-03-17T11:59:42.524Z,1018.99
2023-03-17T12:00:43.809Z,1018.88
2023-03-17T12:01:42.527Z,1018.94
2023-03-17T12:02:42.544Z,1018.96
2023-03-17T12:03:42.649Z,1018.97
2023-03-17T12:04:42.552Z,1018.95
2023-03-17T12:05:42.527Z,1018.94
2023-03-17T12:06:42.533Z,1018.97
2023-03-17T12:07:42.531Z,1018.97
2023-03-17T12:08:42.521Z,1019.02